KAHN/AHN METAR and TAF weather

Enter ICAO airport designator
Station Type Date Time Source
KAHN METAR 2018/12/11 13:15 UTC NOAA

KAHN 111315Z 27004KT 3SM BR FEW002 02/01 A3024 RMK AO2 T00170011


Station Type Date Time Source
KAHN Decoded METAR 2018/12/11 13:15 UTC NOAA

ATHENS BEN EPPS AIRPORT, GA, United States (KAHN) 33-57N 083-20W 244M
Dec 11, 2018 - 08:15 AM EST / 2018.12.11 1315 UTC
Wind: from the W (270 degrees) at 5 MPH (4 KT):0
Visibility: 3 mile(s):0
Sky conditions: mostly clear
Weather: mist
Temperature: 35.1 F (1.7 C)
Dew Point: 34.0 F (1.1 C)
Relative Humidity: 95%
Pressure (altimeter): 30.24 in. Hg (1024 hPa)
ob: KAHN 111315Z 27004KT 3SM BR FEW002 02/01 A3024 RMK AO2 T00170011
cycle: 13

Station Type Date Time Source
KAHN TAF 2018/12/11 12:54 UTC NOAA

TAF
AMD KAHN 111151Z 1112/1212 27003KT 3SM BR SCT003 SCT025
TEMPO 1112/1114 1SM BR BKN003
FM111400 30004KT P6SM SCT020
FM111700 28006KT P6SM SKC
FM120000 27003KT P6SM SKC


Example: see airport list